Time;durP1;ratioP1;P1;durP2;ratioP2;P2;SDS_P1;SDS_P2;PMS_P1;PMS_P2;Temp;Humidity;BMP_temperature;BMP_pressure;BME280_temperature;BME280_humidity;BME280_pressure;Samples;Min_cycle;Max_cycle;Signal;HPM_P1;HPM_P2
2022/03/25 00:01:39;;;;;;;15.40;7.62;;;;;;;8.81;36.28;100838.38;4478196;31;33258;-83
2022/03/25 00:04:08;;;;;;;18.92;6.97;;;;;;;8.79;36.40;100835.78;4477647;31;33494;-83
2022/03/25 00:06:35;;;;;;;14.70;7.12;;;;;;;8.88;36.02;100830.31;4492836;31;33805;-83
2022/03/25 00:09:03;;;;;;;15.43;7.40;;;;;;;8.98;35.68;100831.88;4479379;31;33585;-83
2022/03/25 00:11:31;;;;;;;18.48;7.22;;;;;;;9.01;35.59;100825.66;4491658;31;33557;-83
2022/03/25 00:13:59;;;;;;;17.92;7.30;;;;;;;8.85;36.03;100825.09;4478092;31;32906;-83
2022/03/25 00:16:26;;;;;;;21.87;7.82;;;;;;;8.71;36.74;100825.38;4486967;31;33407;-84
2022/03/25 00:18:55;;;;;;;15.18;6.95;;;;;;;8.77;36.64;100832.28;4478695;31;32715;-84
2022/03/25 00:21:23;;;;;;;10.23;6.75;;;;;;;8.75;36.69;100826.19;4490891;31;33756;-85
2022/03/25 00:23:51;;;;;;;14.23;7.65;;;;;;;8.72;37.05;100835.00;4491183;31;34008;-85
2022/03/25 00:26:19;;;;;;;18.27;7.22;;;;;;;8.80;36.82;100829.59;4477872;31;34382;-84
2022/03/25 00:28:47;;;;;;;13.57;6.85;;;;;;;8.73;36.93;100827.97;4466719;31;32527;-85
2022/03/25 00:31:16;;;;;;;21.98;7.55;;;;;;;8.52;37.41;100821.38;4488698;31;33695;-85
2022/03/25 00:33:49;;;;;;;17.83;6.47;;;;;;;8.49;37.64;100828.44;4491346;31;34499;-85
2022/03/25 00:36:18;;;;;;;16.98;7.90;;;;;;;8.50;37.47;100825.81;4490748;31;33340;-84
2022/03/25 00:38:46;;;;;;;16.67;7.20;;;;;;;8.25;38.53;100827.97;4478869;31;32901;-85
2022/03/25 00:41:15;;;;;;;19.75;7.07;;;;;;;8.29;38.12;100829.66;4477766;31;33323;-84
2022/03/25 00:43:44;;;;;;;17.20;7.30;;;;;;;8.17;38.67;100829.87;4478128;31;33792;-85
2022/03/25 00:46:13;;;;;;;13.43;7.05;;;;;;;8.09;38.74;100837.03;4491351;31;33876;-83
2022/03/25 00:48:42;;;;;;;16.90;7.62;;;;;;;7.96;39.52;100826.72;4480028;31;34760;-83
2022/03/25 00:51:10;;;;;;;14.95;7.75;;;;;;;8.07;38.85;100823.03;4478302;31;33847;-83
2022/03/25 00:53:38;;;;;;;19.00;7.68;;;;;;;8.21;38.25;100828.91;4476959;31;33316;-83
2022/03/25 00:56:09;;;;;;;18.08;7.30;;;;;;;8.19;38.26;100822.81;4478168;31;32368;-83
2022/03/25 00:58:37;;;;;;;14.98;7.43;;;;;;;8.10;38.30;100829.09;4492109;31;33490;-83
2022/03/25 01:01:05;;;;;;;19.00;8.13;;;;;;;8.14;38.30;100833.41;4491989;31;33982;-83
2022/03/25 01:03:35;;;;;;;16.75;7.55;;;;;;;8.11;38.54;100827.34;4478188;31;33795;-83
2022/03/25 01:06:03;;;;;;;19.35;8.10;;;;;;;8.02;39.06;100827.50;4479284;31;33129;-83
2022/03/25 01:08:31;;;;;;;16.52;7.72;;;;;;;7.98;39.29;100821.44;4488582;31;33563;-83
2022/03/25 01:11:01;;;;;;;18.00;7.43;;;;;;;7.99;39.21;100819.69;4478948;31;32151;-82
2022/03/25 01:13:33;;;;;;;15.80;7.37;;;;;;;7.99;39.26;100819.69;4464866;31;33077;-83
2022/03/25 01:16:02;;;;;;;19.73;7.03;;;;;;;7.86;39.59;100822.50;4477293;31;32894;-83
2022/03/25 01:18:30;;;;;;;15.88;7.90;;;;;;;7.74;39.41;100822.72;4478897;31;32628;-84
2022/03/25 01:20:59;;;;;;;14.52;7.50;;;;;;;7.75;39.79;100827.06;4476455;31;32491;-84
2022/03/25 01:23:27;;;;;;;13.25;6.95;;;;;;;7.53;40.42;100828.28;4490982;31;34333;-82
2022/03/25 01:25:55;;;;;;;12.52;6.68;;;;;;;7.51;40.36;100811.69;4489424;31;33320;-82
2022/03/25 01:28:23;;;;;;;14.57;6.20;;;;;;;7.64;39.85;100816.72;4478366;31;33195;-82
2022/03/25 01:30:51;;;;;;;15.77;5.85;;;;;;;7.62;39.79;100823.75;4469198;31;34264;-82
2022/03/25 01:33:19;;;;;;;14.35;6.45;;;;;;;7.39;40.09;100829.34;4491374;31;33840;-82
2022/03/25 01:35:47;;;;;;;13.20;6.35;;;;;;;7.52;40.08;100829.19;4477513;31;33308;-81
2022/03/25 01:38:14;;;;;;;13.65;7.05;;;;;;;7.32;40.47;100835.59;4492775;31;33865;-81
2022/03/25 01:40:42;;;;;;;14.38;6.85;;;;;;;7.25;40.75;100830.44;4492464;31;34456;-81
2022/03/25 01:43:10;;;;;;;11.35;6.43;;;;;;;7.35;40.65;100838.16;4489133;31;33796;-81
2022/03/25 01:45:38;;;;;;;11.48;6.30;;;;;;;7.26;41.24;100838.28;4491284;31;33238;-83
2022/03/25 01:48:11;;;;;;;13.32;6.00;;;;;;;7.41;40.64;100837.22;4488578;31;33500;-82
2022/03/25 01:50:40;;;;;;;11.73;5.90;;;;;;;7.16;41.36;100839.28;4466335;31;33425;-82
2022/03/25 01:53:19;;;;;;;12.05;5.68;;;;;;;7.21;41.09;100845.34;4491273;31;32487;-81
2022/03/25 01:55:59;;;;;;;9.75;5.00;;;;;;;7.27;41.02;100844.44;4474658;31;33068;-82
2022/03/25 01:58:30;;;;;;;13.75;5.10;;;;;;;7.17;41.32;100838.44;4476694;31;34553;-81
2022/03/25 02:00:58;;;;;;;11.12;5.80;;;;;;;7.31;40.68;100844.38;4478453;31;33006;-83
2022/03/25 02:03:26;;;;;;;11.63;4.87;;;;;;;7.21;40.65;100842.72;4486128;31;34038;-83
2022/03/25 02:05:56;;;;;;;9.43;4.68;;;;;;;7.16;41.05;100844.53;4476405;32;33103;-83
2022/03/25 02:08:23;;;;;;;13.18;5.05;;;;;;;7.11;41.34;100843.75;4477088;31;33531;-84
2022/03/25 02:10:52;;;;;;;12.40;5.05;;;;;;;7.13;41.02;100849.84;4478177;31;32366;-84
2022/03/25 02:13:20;;;;;;;12.23;5.43;;;;;;;7.07;41.44;100844.66;4477631;31;32251;-83
2022/03/25 02:15:49;;;;;;;11.52;5.50;;;;;;;6.91;41.91;100847.47;4464073;31;33581;-82
2022/03/25 02:18:18;;;;;;;13.32;4.53;;;;;;;7.08;41.61;100859.56;4477530;31;33134;-82
2022/03/25 02:20:48;;;;;;;7.12;4.50;;;;;;;7.00;41.95;100858.78;4464189;31;32375;-84
2022/03/25 02:23:16;;;;;;;11.45;5.15;;;;;;;6.85;41.92;100865.94;4475495;31;34172;-84
2022/03/25 02:25:46;;;;;;;12.32;4.90;;;;;;;6.87;42.03;100866.78;4491182;31;33546;-84
2022/03/25 02:28:13;;;;;;;10.80;5.80;;;;;;;6.89;41.82;100865.03;4479500;31;34726;-84
2022/03/25 02:30:43;;;;;;;8.68;4.97;;;;;;;6.53;42.72;100868.03;4480149;31;33367;-83
2022/03/25 02:33:14;;;;;;;9.35;4.55;;;;;;;6.79;42.05;100868.66;4467549;31;32698;-83
2022/03/25 02:35:47;;;;;;;13.82;4.80;;;;;;;6.75;42.17;100869.56;4488284;31;34084;-83
2022/03/25 02:38:23;;;;;;;10.10;5.20;;;;;;;6.80;42.07;100870.38;4493236;31;33735;-83
2022/03/25 02:40:51;;;;;;;15.25;4.87;;;;;;;6.53;43.05;100875.91;4472122;31;33409;-83
2022/03/25 02:43:19;;;;;;;12.63;5.87;;;;;;;6.60;42.63;100873.22;4492724;31;33330;-83
2022/03/25 02:45:47;;;;;;;13.62;4.95;;;;;;;6.66;42.47;100877.53;4481383;31;32574;-83
2022/03/25 02:48:14;;;;;;;12.30;4.87;;;;;;;6.68;42.46;100878.38;4479611;31;32522;-83
2022/03/25 02:50:44;;;;;;;10.10;4.97;;;;;;;6.52;42.96;100889.94;4493053;31;33624;-83
2022/03/25 02:53:13;;;;;;;10.90;4.18;;;;;;;6.48;43.25;100885.59;4479324;31;33037;-84
2022/03/25 02:55:42;;;;;;;11.95;5.00;;;;;;;6.31;43.57;100886.59;4493087;31;33773;-84
2022/03/25 02:58:11;;;;;;;8.48;4.62;;;;;;;6.28;43.93;100893.63;4490645;31;33560;-84
2022/03/25 03:00:39;;;;;;;10.57;5.12;;;;;;;6.47;43.21;100895.22;4468462;31;33898;-84
2022/03/25 03:03:08;;;;;;;11.90;4.35;;;;;;;6.21;43.46;100900.66;4480361;31;34571;-85
2022/03/25 03:05:36;;;;;;;13.18;4.15;;;;;;;6.36;43.08;100905.81;4490505;31;32223;-84
2022/03/25 03:08:04;;;;;;;7.72;4.45;;;;;;;6.57;42.67;100893.38;4490587;31;33131;-84
2022/03/25 03:10:32;;;;;;;10.25;5.50;;;;;;;6.10;43.96;100897.28;4493771;31;33919;-85
2022/03/25 03:13:02;;;;;;;8.80;4.55;;;;;;;6.20;43.99;100898.94;4491714;31;34358;-85
2022/03/25 03:15:30;;;;;;;9.98;4.57;;;;;;;6.11;44.32;100889.38;4477227;31;32918;-85
2022/03/25 03:17:57;;;;;;;11.43;5.25;;;;;;;6.18;44.34;100905.97;4479381;31;32797;-85
2022/03/25 03:20:26;;;;;;;11.02;4.43;;;;;;;6.10;44.38;100905.16;4478765;31;33381;-85
2022/03/25 03:22:55;;;;;;;13.10;4.93;;;;;;;5.99;44.67;100904.38;4490031;31;33587;-84
2022/03/25 03:25:23;;;;;;;9.73;4.40;;;;;;;5.98;44.56;100902.59;4478817;31;33276;-84
2022/03/25 03:27:52;;;;;;;10.57;4.80;;;;;;;5.77;45.24;100908.84;4480757;31;34297;-84
2022/03/25 03:30:20;;;;;;;8.80;4.57;;;;;;;5.89;44.99;100895.66;4479813;31;32886;-84
2022/03/25 03:32:54;;;;;;;14.02;5.25;;;;;;;6.03;44.35;100901.72;4492894;31;34757;-84
2022/03/25 03:35:23;;;;;;;11.68;5.28;;;;;;;6.15;44.00;100903.34;4480692;31;32430;-84
2022/03/25 03:37:52;;;;;;;12.45;4.97;;;;;;;6.20;43.66;100903.31;4477366;31;32325;-84
2022/03/25 03:40:19;;;;;;;10.07;5.53;;;;;;;6.16;43.65;100908.56;4489544;31;33302;-84
2022/03/25 03:42:47;;;;;;;9.13;4.55;;;;;;;5.95;44.35;100900.88;4477551;31;34054;-85
2022/03/25 03:45:16;;;;;;;10.48;4.50;;;;;;;6.12;43.99;100900.75;4490806;31;33526;-84
2022/03/25 03:47:43;;;;;;;8.25;4.00;;;;;;;5.90;44.60;100900.03;4478356;31;33060;-85
2022/03/25 03:50:14;;;;;;;11.00;4.62;;;;;;;5.93;44.66;100902.63;4491375;31;33083;-85
2022/03/25 03:52:43;;;;;;;9.63;4.25;;;;;;;5.68;45.33;100904.53;4492023;31;34738;-84
2022/03/25 03:55:11;;;;;;;9.93;4.22;;;;;;;5.71;45.46;100909.75;4471464;31;32393;-82
2022/03/25 03:57:41;;;;;;;9.10;4.47;;;;;;;5.81;45.02;100906.19;4491691;31;33708;-82
2022/03/25 04:00:12;;;;;;;11.00;4.82;;;;;;;5.97;44.42;100900.88;4478922;31;34651;-83
2022/03/25 04:02:42;;;;;;;11.43;5.12;;;;;;;5.84;44.73;100908.81;4491843;31;33118;-83
2022/03/25 04:05:10;;;;;;;12.63;4.87;;;;;;;5.82;44.72;100907.06;4490539;31;33023;-83
2022/03/25 04:07:42;;;;;;;8.40;4.10;;;;;;;5.67;45.27;100902.78;4478274;31;32985;-83
2022/03/25 04:10:11;;;;;;;12.60;4.47;;;;;;;5.82;44.63;100907.94;4478376;31;34381;-83
2022/03/25 04:12:41;;;;;;;9.60;4.82;;;;;;;5.85;44.82;100897.44;4492493;31;33723;-83
2022/03/25 04:15:10;;;;;;;14.77;5.35;;;;;;;5.72;44.96;100901.00;4467501;31;31917;-83
2022/03/25 04:17:42;;;;;;;14.32;4.87;;;;;;;5.68;45.13;100901.91;4491829;31;32620;-83
2022/03/25 04:20:13;;;;;;;11.50;4.32;;;;;;;5.37;45.97;100899.47;4489552;31;34230;-83
2022/03/25 04:22:45;;;;;;;11.05;5.32;;;;;;;5.37;46.37;100899.47;4479630;31;34167;-83
2022/03/25 04:25:13;;;;;;;11.32;5.12;;;;;;;5.33;46.32;100902.09;4478929;31;33452;-82
2022/03/25 04:27:57;;;;;;;10.80;4.65;;;;;;;5.17;46.96;100898.66;4478992;31;33487;-82
2022/03/25 04:30:32;;;;;;;9.93;4.72;;;;;;;5.47;45.99;100902.03;4491135;31;33725;-83
2022/03/25 04:33:01;;;;;;;11.95;4.72;;;;;;;5.20;46.54;100905.66;4477869;31;34052;-82
2022/03/25 04:35:32;;;;;;;10.43;4.32;;;;;;;5.33;46.26;100907.34;4479056;31;32924;-82
2022/03/25 04:38:01;;;;;;;11.68;4.70;;;;;;;5.36;45.94;100909.94;4490876;31;34140;-82
2022/03/25 04:40:29;;;;;;;8.93;5.12;;;;;;;5.43;45.71;100916.03;4490182;31;33542;-82
2022/03/25 04:42:59;;;;;;;11.65;4.15;;;;;;;5.29;46.14;100914.34;4492284;31;34245;-82
2022/03/25 04:45:28;;;;;;;10.98;4.80;;;;;;;5.38;45.96;100916.91;4478794;31;33372;-84
2022/03/25 04:47:56;;;;;;;8.55;4.45;;;;;;;5.43;45.77;100913.41;4478347;31;33113;-83
2022/03/25 04:50:24;;;;;;;16.12;4.62;;;;;;;5.27;46.30;100921.34;4463245;31;32207;-82
2022/03/25 04:52:51;;;;;;;11.77;5.22;;;;;;;5.21;46.43;100918.72;4478536;31;33555;-82
2022/03/25 04:55:20;;;;;;;11.68;5.20;;;;;;;5.17;46.58;100927.47;4490867;31;33728;-83
2022/03/25 04:57:48;;;;;;;14.13;5.25;;;;;;;4.80;48.20;100927.59;4490077;31;33561;-83
2022/03/25 05:00:17;;;;;;;15.90;5.65;;;;;;;5.08;47.14;100922.25;4488981;31;33741;-83
2022/03/25 05:02:46;;;;;;;11.30;5.68;;;;;;;5.33;46.36;100923.06;4494575;31;35084;-83
2022/03/25 05:05:14;;;;;;;13.70;5.18;;;;;;;5.22;46.81;100927.44;4489064;31;33763;-84
2022/03/25 05:07:43;;;;;;;12.23;4.53;;;;;;;5.29;46.77;100922.19;4491824;31;34528;-83
2022/03/25 05:10:12;;;;;;;16.12;5.30;;;;;;;5.53;45.85;100917.72;4476611;31;33080;-83
2022/03/25 05:12:41;;;;;;;11.98;5.70;;;;;;;5.52;45.83;100913.34;4474978;31;33676;-82
2022/03/25 05:15:09;;;;;;;10.35;4.28;;;;;;;5.57;45.84;100917.69;4489753;31;33239;-82
2022/03/25 05:17:47;;;;;;;7.75;4.47;;;;;;;5.63;45.87;100919.41;4476640;31;33276;-82
2022/03/25 05:20:17;;;;;;;11.43;4.43;;;;;;;5.80;45.60;100922.81;4476241;31;33496;-82
2022/03/25 05:22:48;;;;;;;10.23;5.43;;;;;;;6.03;45.01;100922.69;4490060;31;34753;-82
2022/03/25 05:25:17;;;;;;;12.93;5.00;;;;;;;5.81;45.71;100928.91;4491166;31;33235;-82
2022/03/25 05:27:52;;;;;;;9.00;4.95;;;;;;;5.57;46.77;100922.94;4476729;31;34008;-81
2022/03/25 05:30:40;;;;;;;11.57;5.45;;;;;;;5.52;47.20;100929.06;4476083;31;33720;-82
2022/03/25 05:33:08;;;;;;;15.30;5.62;;;;;;;5.59;47.31;100930.78;4488939;31;34616;-81
2022/03/25 05:35:36;;;;;;;13.75;5.15;;;;;;;6.07;45.69;100929.63;4490996;31;33388;-81
2022/03/25 05:38:04;;;;;;;23.05;5.53;;;;;;;6.13;45.67;100929.59;4489883;31;33312;-81
2022/03/25 05:40:32;;;;;;;12.05;5.20;;;;;;;5.79;47.50;100934.19;4490523;31;33552;-82
2022/03/25 05:43:00;;;;;;;12.68;5.57;;;;;;;5.74;47.53;100941.16;4488966;31;33409;-81
2022/03/25 05:45:28;;;;;;;10.80;4.55;;;;;;;6.08;46.17;100930.53;4474389;31;33564;-81
2022/03/25 05:47:56;;;;;;;13.62;5.30;;;;;;;6.13;45.71;100932.22;4476824;31;32807;-82
2022/03/25 05:50:24;;;;;;;18.17;5.43;;;;;;;6.23;45.26;100932.16;4492056;31;34476;-82
2022/03/25 05:52:51;;;;;;;20.98;6.40;;;;;;;6.36;44.70;100932.03;4475212;31;34490;-82
2022/03/25 05:55:19;;;;;;;16.92;6.07;;;;;;;6.52;44.11;100926.66;4463019;31;33067;-84
2022/03/25 05:57:47;;;;;;;13.40;5.97;;;;;;;6.53;44.03;100934.50;4462215;31;33570;-84
2022/03/25 06:00:15;;;;;;;19.90;5.53;;;;;;;6.62;43.81;100928.31;4475647;31;34400;-85
2022/03/25 06:02:44;;;;;;;17.70;6.22;;;;;;;6.77;43.86;100922.91;4491134;31;34280;-82
2022/03/25 06:05:13;;;;;;;11.00;6.03;;;;;;;7.01;43.69;100931.41;4464934;31;34402;-82
2022/03/25 06:07:43;;;;;;;15.43;6.12;;;;;;;7.16;43.61;100925.97;4479552;31;33099;-82
2022/03/25 06:10:13;;;;;;;15.82;6.75;;;;;;;7.43;43.39;100924.78;4488314;31;33542;-82
2022/03/25 06:12:41;;;;;;;12.63;7.00;;;;;;;8.02;42.26;100925.69;4468453;31;34448;-83
2022/03/25 06:15:09;;;;;;;18.25;7.57;;;;;;;7.97;42.66;100922.25;4477487;31;32738;-86
2022/03/25 06:17:42;;;;;;;22.00;7.50;;;;;;;7.88;42.57;100919.75;4478837;31;34104;-84
2022/03/25 06:20:11;;;;;;;;;;;;;;;7.94;42.36;100917.94;4488038;31;34457;-83
2022/03/25 06:22:41;;;;;;;16.25;5.47;;;;;;;8.67;41.84;100920.25;4479811;31;34575;-84
2022/03/25 06:25:09;;;;;;;15.55;7.10;;;;;;;8.42;42.01;100915.44;4490257;31;32214;-84
2022/03/25 06:27:50;;;;;;;13.30;6.57;;;;;;;8.38;41.93;100919.00;4493975;31;35906;-84
2022/03/25 06:30:19;;;;;;;14.18;6.87;;;;;;;8.51;41.41;100922.31;4492195;31;33780;-84
2022/03/25 06:32:47;;;;;;;18.35;6.57;;;;;;;9.11;42.86;100932.59;4490198;31;33515;-85
2022/03/25 06:35:15;;;;;;;16.37;6.00;;;;;;;9.46;41.78;100923.97;4478850;31;31855;-84
2022/03/25 06:37:43;;;;;;;11.12;5.60;;;;;;;9.73;41.30;100926.91;4490094;31;32969;-83
2022/03/25 06:40:12;;;;;;;18.85;6.60;;;;;;;9.72;39.68;100919.88;4480322;31;33850;-83
2022/03/25 06:42:42;;;;;;;11.48;6.30;;;;;;;10.31;39.94;100920.31;4491626;31;33547;-84
2022/03/25 06:45:11;;;;;;;14.65;6.30;;;;;;;10.57;40.00;100916.13;4478016;31;34086;-84
2022/03/25 06:47:39;;;;;;;9.18;5.65;;;;;;;10.48;39.90;100914.59;4478564;31;34332;-84
2022/03/25 06:50:07;;;;;;;9.90;6.25;;;;;;;10.99;38.29;100920.25;4479693;31;33128;-84
2022/03/25 06:52:36;;;;;;;13.30;6.35;;;;;;;11.23;37.93;100924.00;4478700;31;34585;-83
2022/03/25 06:55:04;;;;;;;13.45;5.70;;;;;;;11.19;37.68;100926.78;4491222;31;33375;-84
2022/03/25 06:57:32;;;;;;;13.25;6.62;;;;;;;11.33;37.71;100919.31;4465906;31;34158;-83
2022/03/25 07:00:01;;;;;;;11.35;5.65;;;;;;;11.26;36.20;100916.00;4492922;31;33203;-83
2022/03/25 07:02:29;;;;;;;11.77;4.93;;;;;;;11.87;34.60;100921.25;4477738;31;33399;-83
2022/03/25 07:04:57;;;;;;;13.30;4.72;;;;;;;11.91;33.41;100917.56;4484177;31;33548;-84
2022/03/25 07:07:27;;;;;;;8.43;5.60;;;;;;;12.22;32.99;100920.12;4492213;31;34240;-84
2022/03/25 07:09:55;;;;;;;12.68;5.55;;;;;;;12.67;33.04;100927.44;4479093;31;32190;-83
2022/03/25 07:12:23;;;;;;;13.05;5.85;;;;;;;12.82;31.87;100926.94;4488619;31;34068;-83
2022/03/25 07:14:51;;;;;;;11.12;6.28;;;;;;;13.10;30.99;100922.41;4491956;31;32573;-84
2022/03/25 07:17:18;;;;;;;20.62;6.18;;;;;;;13.20;30.98;100929.13;4478287;31;34124;-84
2022/03/25 07:19:45;;;;;;;20.33;7.37;;;;;;;13.46;31.08;100930.84;4491186;31;34361;-84
2022/03/25 07:22:14;;;;;;;14.10;6.37;;;;;;;14.20;30.65;100923.53;4478538;31;32622;-84
2022/03/25 07:24:41;;;;;;;16.08;6.95;;;;;;;14.07;29.26;100925.81;4491442;31;32901;-83
2022/03/25 07:27:09;;;;;;;12.35;6.57;;;;;;;14.08;29.46;100917.75;4491122;31;33540;-84
2022/03/25 07:29:37;;;;;;;12.30;6.97;;;;;;;14.15;29.90;100929.03;4478511;31;33074;-84
2022/03/25 07:32:05;;;;;;;15.48;6.87;;;;;;;14.02;29.93;100926.00;4494758;31;32690;-81
2022/03/25 07:34:35;;;;;;;15.57;7.18;;;;;;;14.04;29.62;100929.44;4493443;31;34090;-82
2022/03/25 07:37:03;;;;;;;15.60;7.47;;;;;;;14.56;29.15;100931.78;4490277;31;33168;-81
2022/03/25 07:39:32;;;;;;;14.87;6.35;;;;;;;15.13;28.80;100926.66;4490471;31;33576;-82
2022/03/25 07:42:00;;;;;;;12.55;5.97;;;;;;;14.79;28.47;100929.00;4481453;31;33890;-80
2022/03/25 07:44:28;;;;;;;18.98;7.43;;;;;;;15.35;28.08;100922.09;4480720;31;32848;-81
2022/03/25 07:46:55;;;;;;;14.75;6.90;;;;;;;15.97;28.19;100926.31;4494733;31;34372;-83
2022/03/25 07:49:23;;;;;;;11.25;6.55;;;;;;;15.95;27.25;100925.53;4477968;31;33980;-84
2022/03/25 07:51:51;;;;;;;10.13;6.53;;;;;;;16.36;27.91;100919.97;4463259;31;32966;-83
2022/03/25 07:54:18;;;;;;;12.90;7.30;;;;;;;16.04;27.18;100925.06;4477683;31;33280;-83
2022/03/25 07:56:46;;;;;;;12.93;6.18;;;;;;;16.17;27.20;100929.81;4465653;31;32437;-83
2022/03/25 07:59:15;;;;;;;10.18;5.35;;;;;;;16.49;27.33;100923.75;4477448;31;33841;-82
2022/03/25 08:01:43;;;;;;;13.65;7.18;;;;;;;16.08;26.33;100924.00;4491392;31;34208;-83
2022/03/25 08:04:11;;;;;;;13.80;5.53;;;;;;;15.89;26.48;100939.13;4476829;31;33543;-82
2022/03/25 08:06:38;;;;;;;11.90;6.22;;;;;;;16.30;26.91;100933.59;4489263;31;34463;-83
2022/03/25 08:09:06;;;;;;;9.32;5.97;;;;;;;16.71;26.67;100928.87;4466172;31;33472;-82
2022/03/25 08:11:34;;;;;;;13.40;7.10;;;;;;;15.79;26.96;100944.03;4491354;31;33965;-83
2022/03/25 08:14:02;;;;;;;11.20;6.70;;;;;;;16.80;26.65;100925.72;4476622;31;33400;-83
2022/03/25 08:16:30;;;;;;;18.75;6.90;;;;;;;17.10;25.97;100930.44;4488684;31;34036;-82
2022/03/25 08:18:58;;;;;;;10.15;6.30;;;;;;;16.44;26.55;100920.47;4488524;31;33290;-83
2022/03/25 08:21:26;;;;;;;9.45;5.78;;;;;;;16.76;26.56;100926.88;4476721;31;33653;-83
2022/03/25 08:29:27;;;;;;;11.43;6.10;;;;;;;17.01;25.07;100917.56;4492943;31;33881;-82
2022/03/25 08:31:55;;;;;;;8.82;5.60;;;;;;;17.04;26.62;100922.72;4490748;31;33432;-82
2022/03/25 08:34:23;;;;;;;10.90;5.53;;;;;;;17.33;25.67;100918.53;4487099;31;32978;-81
2022/03/25 08:36:50;;;;;;;12.35;6.15;;;;;;;17.58;24.95;100921.59;4467500;31;32926;-81
2022/03/25 08:39:18;;;;;;;10.52;6.20;;;;;;;17.12;25.09;100918.72;4489694;31;33994;-82
2022/03/25 08:41:46;;;;;;;11.05;6.12;;;;;;;17.68;25.77;100924.59;4474458;31;34049;-82
2022/03/25 08:44:14;;;;;;;15.23;6.68;;;;;;;17.08;25.41;100919.81;4474670;31;32535;-81
2022/03/25 08:46:42;;;;;;;13.62;6.30;;;;;;;17.37;24.14;100914.72;4478351;31;34318;-81
2022/03/25 08:49:10;;;;;;;12.80;7.07;;;;;;;17.56;24.36;100915.44;4492313;31;33528;-82
2022/03/25 08:51:37;;;;;;;12.45;6.15;;;;;;;18.43;24.86;100909.69;4476657;31;33726;-81
2022/03/25 08:54:06;;;;;;;11.20;7.07;;;;;;;18.35;24.70;100919.94;4497299;31;33871;-81
2022/03/25 08:56:34;;;;;;;12.30;6.20;;;;;;;17.60;24.12;100919.69;4489668;31;33469;-80
2022/03/25 08:59:02;;;;;;;10.45;7.05;;;;;;;17.78;24.40;100923.19;4480425;31;33894;-80
2022/03/25 09:01:30;;;;;;;15.60;6.57;;;;;;;18.64;23.74;100916.41;4488379;31;33427;-80
2022/03/25 09:03:58;;;;;;;16.45;7.05;;;;;;;18.94;23.98;100910.19;4488462;31;34171;-80
2022/03/25 09:06:28;;;;;;;16.20;7.10;;;;;;;18.85;22.56;100914.31;4463916;31;33356;-80
2022/03/25 09:08:55;;;;;;;12.25;6.90;;;;;;;19.05;23.78;100907.75;4490895;31;33987;-80
2022/03/25 09:11:23;;;;;;;12.23;6.55;;;;;;;19.50;21.93;100908.50;4479789;31;33141;-80
2022/03/25 09:13:51;;;;;;;17.83;7.22;;;;;;;19.60;22.29;100903.44;4490970;31;34007;-80
2022/03/25 09:16:19;;;;;;;13.27;7.57;;;;;;;19.30;22.43;100903.53;4480708;31;33587;-80
2022/03/25 09:18:46;;;;;;;12.48;7.30;;;;;;;19.29;22.67;100904.50;4491883;31;33639;-81
2022/03/25 09:21:14;;;;;;;17.83;8.15;;;;;;;19.54;22.56;100902.00;4494345;31;33852;-80
2022/03/25 09:23:42;;;;;;;13.93;7.60;;;;;;;19.55;21.64;100895.66;4492498;31;32494;-81
2022/03/25 09:26:09;;;;;;;11.63;6.95;;;;;;;18.81;22.67;100914.59;4476872;31;33990;-80
2022/03/25 09:28:37;;;;;;;15.52;8.15;;;;;;;19.17;21.54;100915.00;4467462;32;32924;-80
2022/03/25 09:31:05;;;;;;;13.57;7.12;;;;;;;19.43;22.70;100902.69;4490072;31;33728;-81
2022/03/25 09:33:33;;;;;;;20.95;7.40;;;;;;;18.95;22.36;100895.88;4477034;31;33380;-80
2022/03/25 09:36:00;;;;;;;11.95;7.00;;;;;;;18.92;23.85;100902.28;4476923;31;34350;-81
2022/03/25 09:38:28;;;;;;;10.07;6.47;;;;;;;19.36;22.95;100897.78;4493582;31;32994;-80
2022/03/25 09:41:03;;;;;;;13.00;7.53;;;;;;;20.14;22.10;100900.84;4489542;31;34193;-81
2022/03/25 09:43:31;;;;;;;16.75;7.03;;;;;;;20.50;21.61;100892.16;4489361;31;33062;-80
2022/03/25 09:46:01;;;;;;;15.48;8.25;;;;;;;19.53;21.87;100896.75;4490419;31;33198;-80
2022/03/25 09:48:29;;;;;;;12.35;7.62;;;;;;;19.88;22.51;100897.19;4475921;31;32848;-80
2022/03/25 09:51:17;;;;;;;13.77;8.02;;;;;;;20.36;21.60;100886.84;4481242;31;32636;-81
2022/03/25 09:53:45;;;;;;;11.65;6.57;;;;;;;20.35;21.54;100890.50;4494367;31;32541;-81
2022/03/25 09:56:15;;;;;;;10.70;6.85;;;;;;;20.73;20.75;100884.37;4469265;31;32786;-80
2022/03/25 09:58:43;;;;;;;12.23;7.30;;;;;;;20.67;20.96;100897.25;4477931;31;32927;-80
2022/03/25 10:01:10;;;;;;;14.25;7.93;;;;;;;20.82;21.31;100883.75;4477034;31;33749;-81
2022/03/25 10:03:40;;;;;;;17.30;9.13;;;;;;;20.62;21.48;100877.94;4480276;31;34275;-80
2022/03/25 10:06:14;;;;;;;19.87;7.40;;;;;;;20.93;20.90;100865.06;4480279;31;33999;-80
2022/03/25 10:08:46;;;;;;;14.20;7.82;;;;;;;21.08;21.07;100868.47;4493427;31;32963;-80
2022/03/25 10:11:24;;;;;;;14.35;8.02;;;;;;;21.16;20.58;100871.50;4482194;31;33858;-80
2022/03/25 10:14:22;;;;;;;13.10;6.55;;;;;;;21.11;20.23;100861.06;4493892;31;34095;-82
2022/03/25 10:16:52;;;;;;;15.50;8.32;;;;;;;21.46;19.94;100852.38;4493714;31;34455;-80
2022/03/25 10:19:22;;;;;;;12.05;7.82;;;;;;;21.13;19.96;100859.16;4491670;31;34075;-82
2022/03/25 10:21:58;;;;;;;13.95;7.28;;;;;;;20.67;20.09;100865.06;4479111;31;32462;-82
2022/03/25 10:24:39;;;;;;;17.23;7.85;;;;;;;21.33;20.16;100851.53;4476579;31;32893;-82
2022/03/25 10:27:25;;;;;;;15.80;9.27;;;;;;;21.68;19.94;100835.53;4493305;31;33931;-82
2022/03/25 10:29:56;;;;;;;13.38;8.50;;;;;;;21.88;19.23;100831.34;4493277;31;33631;-82
2022/03/25 10:32:26;;;;;;;15.13;9.10;;;;;;;21.30;21.34;100830.22;4490229;31;35198;-82
2022/03/25 10:35:02;;;;;;;11.75;7.03;;;;;;;21.93;19.28;100813.03;4476373;31;33612;-82
2022/03/25 10:37:30;;;;;;;11.25;7.03;;;;;;;22.19;18.94;100828.09;4493028;31;34575;-83
2022/03/25 10:39:58;;;;;;;9.30;5.15;;;;;;;22.03;18.98;100822.16;4493991;31;34041;-82
2022/03/25 10:42:25;;;;;;;9.80;5.72;;;;;;;21.78;19.00;100824.94;4490714;31;33513;-83
2022/03/25 10:44:59;;;;;;;12.13;5.75;;;;;;;21.91;19.92;100826.59;4480546;31;32807;-82
2022/03/25 10:47:28;;;;;;;10.68;5.50;;;;;;;22.42;18.69;100828.19;4491328;31;34368;-82
2022/03/25 10:50:12;;;;;;;9.80;5.50;;;;;;;22.41;17.83;100827.34;4478773;31;33618;-82
2022/03/25 10:52:41;;;;;;;9.65;5.87;;;;;;;21.60;18.33;100822.66;4490426;31;34566;-82
2022/03/25 10:55:23;;;;;;;13.20;6.90;;;;;;;21.87;18.67;100811.66;4493201;31;34133;-82
2022/03/25 10:57:58;;;;;;;15.82;7.75;;;;;;;21.80;18.27;100812.25;4490595;31;33523;-82
2022/03/25 11:00:26;;;;;;;11.75;7.28;;;;;;;21.60;18.80;100817.28;4479613;31;32450;-82
2022/03/25 11:02:54;;;;;;;14.40;6.40;;;;;;;21.60;18.46;100811.91;4476830;31;33970;-82
2022/03/25 11:05:25;;;;;;;11.27;6.65;;;;;;;21.92;20.07;100808.62;4493316;31;33461;-82
2022/03/25 11:07:53;;;;;;;12.32;6.85;;;;;;;22.51;17.99;100797.88;4485339;31;33501;-83
2022/03/25 11:10:21;;;;;;;11.65;6.85;;;;;;;22.58;18.19;100799.09;4466482;31;32981;-82
2022/03/25 11:12:51;;;;;;;14.20;7.62;;;;;;;22.62;18.30;100805.97;4477712;31;34709;-82
2022/03/25 11:15:20;;;;;;;19.70;9.13;;;;;;;22.78;17.48;100794.84;4474162;31;33407;-82
2022/03/25 11:17:49;;;;;;;16.90;8.40;;;;;;;22.64;17.30;100795.91;4465334;31;33843;-82
2022/03/25 11:20:20;;;;;;;11.93;7.78;;;;;;;21.91;18.18;100798.88;4465658;31;34018;-82
2022/03/25 11:22:59;;;;;;;18.17;7.85;;;;;;;22.25;17.77;100797.19;4466775;31;32953;-82
2022/03/25 11:25:31;;;;;;;17.00;8.43;;;;;;;22.38;17.67;100789.87;4471575;31;32763;-83
2022/03/25 11:28:04;;;;;;;17.92;8.65;;;;;;;22.48;17.79;100792.72;4490379;31;33654;-82
2022/03/25 11:30:36;;;;;;;11.90;7.47;;;;;;;22.46;18.33;100783.94;4477342;31;33001;-82
2022/03/25 11:33:06;;;;;;;18.70;7.37;;;;;;;22.83;17.87;100778.31;4477937;31;32979;-82
2022/03/25 11:35:42;;;;;;;12.35;7.85;;;;;;;22.75;18.22;100774.41;4474497;31;33268;-82
2022/03/25 11:38:19;;;;;;;18.08;8.13;;;;;;;22.53;20.23;100769.00;4480932;31;34407;-83